Time;durP1;ratioP1;P1;durP2;ratioP2;P2;SDS_P1;SDS_P2;PMS_P1;PMS_P2;Temp;Humidity;BMP_temperature;BMP_pressure;BME280_temperature;BME280_humidity;BME280_pressure;Samples;Min_cycle;Max_cycle;Signal;HPM_P1;HPM_P2
2023/04/11 00:00:07;;;;;;;;;1.00;1.00;;;;;;;;5075257;27;45445;-62
2023/04/11 00:02:34;;;;;;;;;0.00;0.00;;;;;;;;5074812;27;45680;-62
2023/04/11 00:04:59;;;;;;;;;0.00;0.00;;;;;;;;5075251;27;45489;-62
2023/04/11 00:07:25;;;;;;;;;2.00;2.00;;;;;;;;5074960;27;45581;-62
2023/04/11 00:09:50;;;;;;;;;0.00;0.00;;;;;;;;5075267;28;45481;-62
2023/04/11 00:12:16;;;;;;;;;1.00;1.00;;;;;;;;5074787;27;46428;-62
2023/04/11 00:14:44;;;;;;;;;2.00;2.00;;;;;;;;5074618;27;45570;-62
2023/04/11 00:17:11;;;;;;;;;0.33;0.33;;;;;;;;5075275;27;45419;-62
2023/04/11 00:19:36;;;;;;;;;1.00;1.00;;;;;;;;5074730;27;45511;-62
2023/04/11 00:22:03;;;;;;;;;0.67;0.67;;;;;;;;5074528;27;46245;-62
2023/04/11 00:24:29;;;;;;;;;1.00;0.00;;;;;;;;5074656;27;45488;-62
2023/04/11 00:26:57;;;;;;;;;1.67;0.00;;;;;;;;5074737;27;45513;-62
2023/04/11 00:29:23;;;;;;;;;2.00;1.00;;;;;;;;5074963;27;45565;-62
2023/04/11 00:31:48;;;;;;;;;0.67;0.67;;;;;;;;5074483;27;46017;-62
2023/04/11 00:34:14;;;;;;;;;1.33;1.33;;;;;;;;5072986;28;45577;-62
2023/04/11 00:36:40;;;;;;;;;3.33;2.00;;;;;;;;5074244;27;45566;-62
2023/04/11 00:39:06;;;;;;;;;1.00;1.00;;;;;;;;5074824;28;45626;-62
2023/04/11 00:41:31;;;;;;;;;1.00;1.00;;;;;;;;5074107;27;46059;-62
2023/04/11 00:43:57;;;;;;;;;0.00;0.00;;;;;;;;5074566;27;45474;-62
2023/04/11 00:46:23;;;;;;;;;1.00;1.00;;;;;;;;5074475;27;45528;-62
2023/04/11 00:48:49;;;;;;;;;0.00;0.00;;;;;;;;5074494;27;45572;-62
2023/04/11 00:51:14;;;;;;;;;1.00;1.00;;;;;;;;5074068;28;45484;-62
2023/04/11 00:53:41;;;;;;;;;1.00;1.00;;;;;;;;5074338;27;45544;-62
2023/04/11 00:56:07;;;;;;;;;1.00;1.00;;;;;;;;5074021;27;45426;-62
2023/04/11 00:58:33;;;;;;;;;1.33;1.33;;;;;;;;5074219;27;45496;-62
2023/04/11 01:00:59;;;;;;;;;1.33;0.33;;;;;;;;5073902;27;45480;-62
2023/04/11 01:03:25;;;;;;;;;2.00;0.67;;;;;;;;5074005;28;45633;-62
2023/04/11 01:05:53;;;;;;;;;0.33;0.33;;;;;;;;5072670;27;45482;-62
2023/04/11 01:08:19;;;;;;;;;2.00;1.00;;;;;;;;5074097;27;45664;-61
2023/04/11 01:10:45;;;;;;;;;1.00;1.00;;;;;;;;5073966;27;45525;-62
2023/04/11 01:13:11;;;;;;;;;2.00;1.00;;;;;;;;5073854;27;45568;-62
2023/04/11 01:15:36;;;;;;;;;1.00;1.00;;;;;;;;5073762;27;45493;-62
2023/04/11 01:18:01;;;;;;;;;1.00;1.00;;;;;;;;5073830;27;45501;-62
2023/04/11 01:20:30;;;;;;;;;1.67;1.00;;;;;;;;5073803;28;46051;-62
2023/04/11 01:22:56;;;;;;;;;2.00;2.00;;;;;;;;5073736;27;45567;-62
2023/04/11 01:25:22;;;;;;;;;2.00;1.00;;;;;;;;5073887;27;45480;-61
2023/04/11 01:27:47;;;;;;;;;2.00;1.00;;;;;;;;5073860;27;45583;-62
2023/04/11 01:30:12;;;;;;;;;0.67;0.67;;;;;;;;5073441;27;45473;-62
2023/04/11 01:32:38;;;;;;;;;2.00;1.00;;;;;;;;5073920;27;45558;-62
2023/04/11 01:35:04;;;;;;;;;1.00;0.00;;;;;;;;5073332;27;45501;-61
2023/04/11 01:37:29;;;;;;;;;0.67;0.00;;;;;;;;5073322;27;45622;-62
2023/04/11 01:39:54;;;;;;;;;2.67;0.67;;;;;;;;5073155;27;45646;-62
2023/04/11 01:42:21;;;;;;;;;1.00;0.00;;;;;;;;5073606;27;45488;-62
2023/04/11 01:44:47;;;;;;;;;1.00;1.00;;;;;;;;5073685;27;45430;-61
2023/04/11 01:47:12;;;;;;;;;1.33;0.00;;;;;;;;5071791;27;45593;-62
2023/04/11 01:49:37;;;;;;;;;1.00;1.00;;;;;;;;5073255;27;46126;-62
2023/04/11 01:52:02;;;;;;;;;1.00;0.00;;;;;;;;5073246;27;45371;-62
2023/04/11 01:54:27;;;;;;;;;1.33;0.67;;;;;;;;5073237;27;45632;-62
2023/04/11 01:56:53;;;;;;;;;1.33;1.33;;;;;;;;5072132;27;45466;-62
2023/04/11 01:59:19;;;;;;;;;0.00;0.00;;;;;;;;5072998;27;45450;-62
2023/04/11 02:01:44;;;;;;;;;1.67;1.00;;;;;;;;5073262;27;45418;-62
2023/04/11 02:04:10;;;;;;;;;1.00;1.00;;;;;;;;5071993;27;45950;-62
2023/04/11 02:06:35;;;;;;;;;1.00;1.00;;;;;;;;5073368;27;45505;-62
2023/04/11 02:09:00;;;;;;;;;1.33;1.33;;;;;;;;5072979;27;46056;-62
2023/04/11 02:11:25;;;;;;;;;1.00;1.00;;;;;;;;5072986;27;45428;-61
2023/04/11 02:13:51;;;;;;;;;2.67;1.00;;;;;;;;5073297;27;45674;-62
2023/04/11 02:16:16;;;;;;;;;4.33;2.00;;;;;;;;5072970;27;45585;-62
2023/04/11 02:18:43;;;;;;;;;0.00;0.00;;;;;;;;5073102;27;46266;-61
2023/04/11 02:21:08;;;;;;;;;3.00;2.00;;;;;;;;5072953;27;45477;-62
2023/04/11 02:23:33;;;;;;;;;2.00;2.00;;;;;;;;5072961;27;45410;-62
2023/04/11 02:25:59;;;;;;;;;2.33;1.67;;;;;;;;5072623;27;45588;-61
2023/04/11 02:28:25;;;;;;;;;0.33;0.00;;;;;;;;5072509;28;45681;-62
2023/04/11 02:30:50;;;;;;;;;0.67;0.67;;;;;;;;5072739;27;45566;-62
2023/04/11 02:33:15;;;;;;;;;1.00;1.00;;;;;;;;5072968;27;45612;-62
2023/04/11 02:35:40;;;;;;;;;1.00;1.00;;;;;;;;5071155;28;45509;-62
2023/04/11 02:38:06;;;;;;;;;2.00;0.00;;;;;;;;5071696;27;46094;-62
2023/04/11 02:40:31;;;;;;;;;1.00;1.00;;;;;;;;5072722;28;45577;-62
2023/04/11 02:42:56;;;;;;;;;1.00;1.00;;;;;;;;5072886;28;45375;-62
2023/04/11 02:45:21;;;;;;;;;2.00;0.00;;;;;;;;5072555;28;45397;-62
2023/04/11 02:47:46;;;;;;;;;1.00;1.00;;;;;;;;5072356;27;45435;-62
2023/04/11 02:50:11;;;;;;;;;2.33;1.33;;;;;;;;5073349;27;45394;-62
2023/04/11 02:52:38;;;;;;;;;3.67;1.67;;;;;;;;5076262;27;45419;-61
2023/04/11 02:55:03;;;;;;;;;1.67;1.67;;;;;;;;5075698;27;45668;-62
2023/04/11 02:57:28;;;;;;;;;2.00;1.67;;;;;;;;5075476;27;45426;-62
2023/04/11 02:59:53;;;;;;;;;1.00;1.00;;;;;;;;5075791;27;45613;-62
2023/04/11 03:02:19;;;;;;;;;3.33;1.67;;;;;;;;5076044;27;45396;-62
2023/04/11 03:04:45;;;;;;;;;2.67;1.00;;;;;;;;5075921;27;45558;-62
2023/04/11 03:07:11;;;;;;;;;2.67;1.00;;;;;;;;5075928;27;45528;-62
2023/04/11 03:09:36;;;;;;;;;1.00;1.00;;;;;;;;5075994;27;45545;-62
2023/04/11 03:12:01;;;;;;;;;3.00;2.67;;;;;;;;5075715;27;45490;-62
2023/04/11 03:14:27;;;;;;;;;2.00;1.00;;;;;;;;5075756;27;45497;-62
2023/04/11 03:16:52;;;;;;;;;1.00;1.00;;;;;;;;5073892;27;48275;-62
2023/04/11 03:19:17;;;;;;;;;1.00;1.00;;;;;;;;5075693;27;45640;-62
2023/04/11 03:21:42;;;;;;;;;2.00;0.33;;;;;;;;5075765;27;45664;-61
2023/04/11 03:24:07;;;;;;;;;1.67;1.67;;;;;;;;5075901;27;45505;-62
2023/04/11 03:26:33;;;;;;;;;1.00;1.00;;;;;;;;5075557;28;45539;-62
2023/04/11 03:28:58;;;;;;;;;2.00;1.33;;;;;;;;5075793;27;45638;-62
2023/04/11 03:31:23;;;;;;;;;0.67;0.67;;;;;;;;5075659;27;45431;-63
2023/04/11 03:33:48;;;;;;;;;1.33;1.00;;;;;;;;5075371;27;45516;-63
2023/04/11 03:36:13;;;;;;;;;2.00;1.00;;;;;;;;5073699;27;45575;-63
2023/04/11 03:38:38;;;;;;;;;1.00;1.00;;;;;;;;5075534;27;45508;-63
2023/04/11 03:41:04;;;;;;;;;1.67;1.67;;;;;;;;5075431;28;45701;-63
2023/04/11 03:43:29;;;;;;;;;3.00;0.67;;;;;;;;5075366;27;45568;-63
2023/04/11 03:45:55;;;;;;;;;1.00;1.00;;;;;;;;5075018;27;45704;-63
2023/04/11 03:48:20;;;;;;;;;1.33;1.33;;;;;;;;5075261;27;45545;-63
2023/04/11 03:50:45;;;;;;;;;3.00;2.00;;;;;;;;5075313;27;45634;-62
2023/04/11 03:53:10;;;;;;;;;1.00;1.00;;;;;;;;5073897;27;45558;-62
2023/04/11 03:55:36;;;;;;;;;1.33;1.33;;;;;;;;5075092;27;45622;-62
2023/04/11 03:58:01;;;;;;;;;1.67;0.33;;;;;;;;5075121;27;45823;-62
2023/04/11 04:00:26;;;;;;;;;1.33;1.00;;;;;;;;5075142;27;45560;-62
2023/04/11 04:02:51;;;;;;;;;4.00;2.67;;;;;;;;5073407;27;45505;-62
2023/04/11 04:05:16;;;;;;;;;2.00;0.33;;;;;;;;5074898;27;45542;-63
2023/04/11 04:07:41;;;;;;;;;2.33;2.33;;;;;;;;5075091;27;45561;-62
2023/04/11 04:10:07;;;;;;;;;2.00;2.00;;;;;;;;5075124;27;45406;-62
2023/04/11 04:12:32;;;;;;;;;1.33;0.33;;;;;;;;5074993;27;45661;-62
2023/04/11 04:14:58;;;;;;;;;3.00;3.00;;;;;;;;5074616;28;45603;-62
2023/04/11 04:17:23;;;;;;;;;2.67;1.67;;;;;;;;5073335;27;45530;-62
2023/04/11 04:19:48;;;;;;;;;2.00;0.67;;;;;;;;5074990;27;45546;-62
2023/04/11 04:22:16;;;;;;;;;2.00;2.00;;;;;;;;5074822;27;45479;-62
2023/04/11 04:24:44;;;;;;;;;1.00;1.00;;;;;;;;5074566;27;46094;-62
2023/04/11 04:27:12;;;;;;;;;1.67;1.00;;;;;;;;5074584;27;45651;-62
2023/04/11 04:29:38;;;;;;;;;6.67;2.67;;;;;;;;5072895;27;45478;-63
2023/04/11 04:32:09;;;;;;;;;3.33;3.00;;;;;;;;5074310;27;45456;-62
2023/04/11 04:34:53;;;;;;;;;5.00;1.67;;;;;;;;5074194;28;45433;-63
2023/04/11 04:37:20;;;;;;;;;1.67;1.67;;;;;;;;5074012;27;45555;-62
2023/04/11 04:39:56;;;;;;;;;2.00;1.00;;;;;;;;5073029;27;45514;-62
2023/04/11 04:42:22;;;;;;;;;2.67;1.67;;;;;;;;5074226;27;45521;-62
2023/04/11 04:44:47;;;;;;;;;3.67;2.00;;;;;;;;5073889;27;45521;-62
2023/04/11 04:47:13;;;;;;;;;3.00;1.33;;;;;;;;5073953;27;45536;-62
2023/04/11 04:49:38;;;;;;;;;3.00;2.00;;;;;;;;5074306;27;45476;-62
2023/04/11 04:52:03;;;;;;;;;2.00;0.33;;;;;;;;5074584;28;45390;-63
2023/04/11 04:54:30;;;;;;;;;1.33;1.00;;;;;;;;5074069;27;46407;-62
2023/04/11 04:56:55;;;;;;;;;2.00;2.00;;;;;;;;5074358;27;45436;-62
2023/04/11 04:59:20;;;;;;;;;3.00;1.67;;;;;;;;5074025;27;45425;-63
2023/04/11 05:01:45;;;;;;;;;1.00;1.00;;;;;;;;5074275;27;45401;-63
2023/04/11 05:04:11;;;;;;;;;2.00;2.00;;;;;;;;5074244;27;46738;-62
2023/04/11 05:06:36;;;;;;;;;1.00;1.00;;;;;;;;5074221;27;45544;-62
2023/04/11 05:09:01;;;;;;;;;3.33;2.00;;;;;;;;5074432;27;45631;-62
2023/04/11 05:11:27;;;;;;;;;0.00;0.00;;;;;;;;5074126;27;45421;-62
2023/04/11 05:13:52;;;;;;;;;1.00;1.00;;;;;;;;5072968;27;46067;-62
2023/04/11 05:16:18;;;;;;;;;1.00;1.00;;;;;;;;5073678;27;46094;-62
2023/04/11 05:18:43;;;;;;;;;3.00;1.67;;;;;;;;5074096;27;45434;-61
2023/04/11 05:21:08;;;;;;;;;3.67;3.67;;;;;;;;5072668;27;45489;-62
2023/04/11 05:23:33;;;;;;;;;2.00;2.00;;;;;;;;5073754;27;46087;-62
2023/04/11 05:26:00;;;;;;;;;4.67;4.00;;;;;;;;5073982;27;45556;-62
2023/04/11 05:28:25;;;;;;;;;5.33;1.67;;;;;;;;5072297;27;45542;-62
2023/04/11 05:30:50;;;;;;;;;2.00;2.00;;;;;;;;5073542;27;45656;-62
2023/04/11 05:33:15;;;;;;;;;3.67;2.67;;;;;;;;5073401;27;46714;-62
2023/04/11 05:35:41;;;;;;;;;4.33;1.00;;;;;;;;5073496;27;45506;-62
2023/04/11 05:38:06;;;;;;;;;3.67;2.00;;;;;;;;5073709;27;45585;-62
2023/04/11 05:40:31;;;;;;;;;0.67;0.67;;;;;;;;5073599;28;45386;-62
2023/04/11 05:42:56;;;;;;;;;1.33;1.33;;;;;;;;5073314;27;46191;-62
2023/04/11 05:45:22;;;;;;;;;4.67;3.00;;;;;;;;5073269;27;45582;-62
2023/04/11 05:47:47;;;;;;;;;0.33;0.33;;;;;;;;5073469;27;45422;-62
2023/04/11 05:50:13;;;;;;;;;3.00;2.00;;;;;;;;5073428;27;45527;-63
2023/04/11 05:52:38;;;;;;;;;3.00;3.00;;;;;;;;5073178;27;45497;-63
2023/04/11 05:55:04;;;;;;;;;1.00;1.00;;;;;;;;5071770;27;45427;-63
2023/04/11 05:57:30;;;;;;;;;2.00;2.00;;;;;;;;5073247;27;45512;-63
2023/04/11 05:59:55;;;;;;;;;3.00;3.00;;;;;;;;5073192;27;45694;-63
2023/04/11 06:02:20;;;;;;;;;2.00;2.00;;;;;;;;5073183;27;45565;-63
2023/04/11 06:04:45;;;;;;;;;2.00;1.33;;;;;;;;5072979;27;45580;-63
2023/04/11 06:07:11;;;;;;;;;1.00;1.00;;;;;;;;5073374;27;45531;-63
2023/04/11 06:09:38;;;;;;;;;1.00;1.00;;;;;;;;5073281;27;45639;-64
2023/04/11 06:12:03;;;;;;;;;2.00;2.00;;;;;;;;5073172;27;45992;-63
2023/04/11 06:14:28;;;;;;;;;3.00;2.33;;;;;;;;5073031;27;45492;-57
2023/04/11 06:16:53;;;;;;;;;1.00;1.00;;;;;;;;5072983;27;45430;-58
2023/04/11 06:19:18;;;;;;;;;0.33;0.33;;;;;;;;5072918;27;45489;-58
2023/04/11 06:21:44;;;;;;;;;0.00;0.00;;;;;;;;5072688;27;45455;-58
2023/04/11 06:24:09;;;;;;;;;1.00;1.00;;;;;;;;5072815;27;45616;-58
2023/04/11 06:26:35;;;;;;;;;2.00;2.00;;;;;;;;5072954;27;45494;-58
2023/04/11 06:29:02;;;;;;;;;4.00;4.00;;;;;;;;5072527;27;45516;-58
2023/04/11 06:31:28;;;;;;;;;1.00;1.00;;;;;;;;5072821;28;46080;-58
2023/04/11 06:33:53;;;;;;;;;2.00;2.00;;;;;;;;5072225;27;45596;-63
2023/04/11 06:36:18;;;;;;;;;2.33;2.00;;;;;;;;5072280;27;45434;-60
2023/04/11 06:38:43;;;;;;;;;1.00;1.00;;;;;;;;5072416;27;45563;-62
2023/04/11 06:41:08;;;;;;;;;3.67;1.67;;;;;;;;5070112;27;47064;-61
2023/04/11 06:43:34;;;;;;;;;2.00;1.67;;;;;;;;5071255;27;45389;-61
2023/04/11 06:45:59;;;;;;;;;2.00;2.00;;;;;;;;5072568;27;45531;-61
2023/04/11 06:48:24;;;;;;;;;2.00;2.00;;;;;;;;5072304;27;45493;-61
2023/04/11 06:50:49;;;;;;;;;3.00;2.00;;;;;;;;5072323;28;45515;-60
2023/04/11 06:53:15;;;;;;;;;3.67;3.67;;;;;;;;5072449;28;45485;-63
2023/04/11 06:55:40;;;;;;;;;2.00;2.00;;;;;;;;5072122;27;45457;-62
2023/04/11 06:58:05;;;;;;;;;2.67;2.67;;;;;;;;5070874;28;45435;-63
2023/04/11 07:00:31;;;;;;;;;1.67;1.67;;;;;;;;5068553;27;46516;-64
2023/04/11 07:02:56;;;;;;;;;2.00;2.00;;;;;;;;5071415;27;45571;-65
2023/04/11 07:05:21;;;;;;;;;2.00;2.00;;;;;;;;5072309;27;45527;-67
2023/04/11 07:07:46;;;;;;;;;4.00;2.67;;;;;;;;5071523;27;45532;-64
2023/04/11 07:10:12;;;;;;;;;1.00;0.67;;;;;;;;5072153;27;45530;-65
2023/04/11 07:12:37;;;;;;;;;3.33;2.67;;;;;;;;5071205;28;45622;-62
2023/04/11 07:15:03;;;;;;;;;3.67;1.33;;;;;;;;5071126;27;45536;-63
2023/04/11 07:17:28;;;;;;;;;4.67;3.00;;;;;;;;5063010;28;45549;-63
2023/04/11 07:19:53;;;;;;;;;2.33;1.00;;;;;;;;5071686;27;46286;-63
2023/04/11 07:22:19;;;;;;;;;2.00;2.00;;;;;;;;5072077;27;45354;-65
2023/04/11 07:24:45;;;;;;;;;4.67;2.00;;;;;;;;5060143;28;45488;-62
2023/04/11 07:27:13;;;;;;;;;4.67;3.00;;;;;;;;5071935;27;45549;-62
2023/04/11 07:29:38;;;;;;;;;3.33;3.33;;;;;;;;5071840;28;46177;-63
2023/04/11 07:32:04;;;;;;;;;4.00;3.00;;;;;;;;5071541;27;45563;-63
2023/04/11 07:34:29;;;;;;;;;5.00;2.67;;;;;;;;5071569;27;45454;-62
2023/04/11 07:36:59;;;;;;;;;2.00;2.00;;;;;;;;5073347;27;45544;-62
2023/04/11 07:39:25;;;;;;;;;3.00;3.00;;;;;;;;5058489;27;47547;-62
2023/04/11 07:41:51;;;;;;;;;6.33;3.00;;;;;;;;5072444;27;45772;-62
2023/04/11 07:44:16;;;;;;;;;3.00;3.00;;;;;;;;5075353;27;45525;-62
2023/04/11 07:46:41;;;;;;;;;4.00;2.33;;;;;;;;5075180;27;45460;-63
2023/04/11 07:49:07;;;;;;;;;5.33;2.67;;;;;;;;5074968;27;45531;-63
2023/04/11 07:51:32;;;;;;;;;5.33;3.33;;;;;;;;5075335;27;45488;-64
2023/04/11 07:53:57;;;;;;;;;4.00;4.00;;;;;;;;5075321;27;45441;-65
2023/04/11 07:56:22;;;;;;;;;2.33;2.33;;;;;;;;5074794;27;45464;-64
2023/04/11 07:58:48;;;;;;;;;2.50;2.50;;;;;;;;5074787;27;45614;-66
2023/04/11 08:01:20;;;;;;;;;2.00;2.00;;;;;;;;5074677;27;45593;-65
2023/04/11 08:03:45;;;;;;;;;4.00;2.33;;;;;;;;5075033;27;45465;-65
2023/04/11 08:06:10;;;;;;;;;1.33;1.33;;;;;;;;5074640;27;45568;-65
2023/04/11 08:08:36;;;;;;;;;5.00;4.67;;;;;;;;5075081;27;45573;-66
2023/04/11 08:11:01;;;;;;;;;3.00;3.00;;;;;;;;5074506;27;45495;-66
2023/04/11 08:13:26;;;;;;;;;2.33;2.00;;;;;;;;5074687;27;45488;-65
2023/04/11 08:15:51;;;;;;;;;4.00;2.33;;;;;;;;5074446;27;45648;-65
2023/04/11 08:18:20;;;;;;;;;6.00;3.33;;;;;;;;5074343;27;46032;-66
2023/04/11 08:20:45;;;;;;;;;3.00;1.00;;;;;;;;5074444;27;45655;-69
2023/04/11 08:23:10;;;;;;;;;3.67;3.00;;;;;;;;5074595;27;45599;-69
2023/04/11 08:25:36;;;;;;;;;3.00;2.00;;;;;;;;5074563;27;45663;-66
2023/04/11 08:28:01;;;;;;;;;5.00;4.00;;;;;;;;5074085;27;45399;-67
2023/04/11 08:30:26;;;;;;;;;2.00;2.00;;;;;;;;5074192;27;45484;-65
2023/04/11 08:32:51;;;;;;;;;3.00;2.00;;;;;;;;5074623;27;45459;-65
2023/04/11 08:35:17;;;;;;;;;3.33;2.67;;;;;;;;5073926;27;45560;-66
2023/04/11 08:37:43;;;;;;;;;4.00;4.00;;;;;;;;5074264;27;46237;-65
2023/04/11 08:40:09;;;;;;;;;3.00;3.00;;;;;;;;5072548;28;45680;-65
2023/04/11 08:42:34;;;;;;;;;2.00;2.00;;;;;;;;5074846;27;45531;-61
2023/04/11 08:45:07;;;;;;;;;5.00;2.00;;;;;;;;5073972;27;45727;-61
2023/04/11 08:47:33;;;;;;;;;3.67;2.67;;;;;;;;5072704;27;46146;-62
2023/04/11 08:49:58;;;;;;;;;3.00;2.00;;;;;;;;5073730;27;45634;-59
2023/04/11 08:52:23;;;;;;;;;5.33;2.00;;;;;;;;5073756;27;45508;-59
2023/04/11 08:54:50;;;;;;;;;1.33;1.33;;;;;;;;5073355;27;45485;-62
2023/04/11 08:57:26;;;;;;;;;3.33;3.33;;;;;;;;5073844;28;46662;-68
2023/04/11 08:59:52;;;;;;;;;4.00;3.00;;;;;;;;5073367;28;45553;-67
2023/04/11 09:02:18;;;;;;;;;6.00;3.00;;;;;;;;5074026;27;45511;-65
2023/04/11 09:04:43;;;;;;;;;3.67;3.00;;;;;;;;5073571;27;45697;-64
2023/04/11 09:07:10;;;;;;;;;3.67;3.67;;;;;;;;5073884;27;46015;-65
2023/04/11 09:09:36;;;;;;;;;2.00;2.00;;;;;;;;5073491;27;45450;-63
2023/04/11 09:12:02;;;;;;;;;4.33;4.33;;;;;;;;5073740;27;45595;-64
2023/04/11 09:14:28;;;;;;;;;3.00;3.00;;;;;;;;5073652;27;45701;-66
2023/04/11 09:16:57;;;;;;;;;3.00;3.00;;;;;;;;5072943;27;46443;-65
2023/04/11 09:19:23;;;;;;;;;3.00;3.00;;;;;;;;5072973;27;45444;-65
2023/04/11 09:21:49;;;;;;;;;3.00;2.00;;;;;;;;5073730;27;45589;-65
2023/04/11 09:24:15;;;;;;;;;3.67;2.00;;;;;;;;5073489;27;45602;-62
2023/04/11 09:26:40;;;;;;;;;5.00;3.67;;;;;;;;5073375;27;45656;-61
2023/04/11 09:29:05;;;;;;;;;2.00;2.00;;;;;;;;5065233;27;45532;-62
2023/04/11 09:31:39;;;;;;;;;1.67;1.67;;;;;;;;5072898;28;45546;-61
2023/04/11 09:34:05;;;;;;;;;1.67;1.67;;;;;;;;5073376;27;45566;-63
2023/04/11 09:36:30;;;;;;;;;2.67;1.00;;;;;;;;5072669;28;47046;-64
2023/04/11 09:38:56;;;;;;;;;3.33;3.00;;;;;;;;5073287;27;45473;-64
2023/04/11 09:41:31;;;;;;;;;2.00;2.00;;;;;;;;5073509;28;45563;-65
2023/04/11 09:43:57;;;;;;;;;4.67;3.67;;;;;;;;5072973;27;45618;-64
2023/04/11 09:46:22;;;;;;;;;2.00;2.00;;;;;;;;5064849;27;47092;-64
2023/04/11 09:48:48;;;;;;;;;2.67;2.67;;;;;;;;5073435;27;45409;-64
2023/04/11 09:51:14;;;;;;;;;3.00;3.00;;;;;;;;5073244;27;45511;-64
2023/04/11 09:53:39;;;;;;;;;2.00;2.00;;;;;;;;5073229;27;45590;-61
2023/04/11 09:56:05;;;;;;;;;4.00;1.00;;;;;;;;5073108;27;47415;-63
2023/04/11 09:58:31;;;;;;;;;2.33;1.00;;;;;;;;5072803;27;45485;-62
2023/04/11 10:00:58;;;;;;;;;1.00;1.00;;;;;;;;5066645;27;45552;-62
2023/04/11 10:03:25;;;;;;;;;3.33;3.33;;;;;;;;5067560;27;45433;-63
2023/04/11 10:05:51;;;;;;;;;5.00;4.00;;;;;;;;5064505;28;45979;-63
2023/04/11 10:08:21;;;;;;;;;4.00;2.00;;;;;;;;5060524;27;45536;-62
2023/04/11 10:10:46;;;;;;;;;3.33;3.00;;;;;;;;5068146;27;45584;-62
2023/04/11 10:13:30;;;;;;;;;1.67;1.67;;;;;;;;5071810;27;45689;-63
2023/04/11 10:16:08;;;;;;;;;2.67;1.67;;;;;;;;5072562;27;45512;-62
2023/04/11 10:18:33;;;;;;;;;3.67;3.00;;;;;;;;5069106;28;45496;-62
2023/04/11 10:21:00;;;;;;;;;4.00;1.33;;;;;;;;5071446;28;45534;-54
2023/04/11 10:23:25;;;;;;;;;2.00;2.00;;;;;;;;5072026;27;45403;-55
2023/04/11 10:25:50;;;;;;;;;4.00;3.00;;;;;;;;5071347;27;45969;-61
2023/04/11 10:28:38;;;;;;;;;3.00;3.00;;;;;;;;5070039;27;45480;-66
2023/04/11 10:31:08;;;;;;;;;2.33;2.33;;;;;;;;5070597;27;45573;-58
2023/04/11 10:33:34;;;;;;;;;5.00;1.67;;;;;;;;5067465;28;45755;-58
2023/04/11 10:36:10;;;;;;;;;5.00;3.00;;;;;;;;5068239;27;46349;-58
2023/04/11 10:38:47;;;;;;;;;2.33;2.33;;;;;;;;5067242;27;45476;-60
2023/04/11 10:41:15;;;;;;;;;3.00;3.00;;;;;;;;5070944;27;45479;-60
2023/04/11 10:43:41;;;;;;;;;4.67;4.67;;;;;;;;5071161;27;45578;-57
2023/04/11 10:46:23;;;;;;;;;5.00;4.00;;;;;;;;5063893;27;47053;-58
2023/04/11 10:48:58;;;;;;;;;8.00;8.00;;;;;;;;5063193;27;45572;-62
2023/04/11 10:51:27;;;;;;;;;3.00;1.67;;;;;;;;5070917;27;46080;-62
2023/04/11 10:53:53;;;;;;;;;3.67;2.33;;;;;;;;5072362;27;45450;-62
2023/04/11 10:56:37;;;;;;;;;2.67;2.67;;;;;;;;5071726;27;45544;-62
2023/04/11 10:59:02;;;;;;;;;3.00;2.00;;;;;;;;5072207;27;45538;-62
2023/04/11 11:01:28;;;;;;;;;4.00;3.33;;;;;;;;5072040;27;45484;-61
2023/04/11 11:03:55;;;;;;;;;4.67;2.67;;;;;;;;5072152;27;45420;-62
2023/04/11 11:06:21;;;;;;;;;5.00;3.00;;;;;;;;5071687;27;45554;-62
2023/04/11 11:08:46;;;;;;;;;3.00;2.00;;;;;;;;5071904;27;45430;-62
2023/04/11 11:11:11;;;;;;;;;4.67;4.00;;;;;;;;5072964;27;45694;-61
2023/04/11 11:13:41;;;;;;;;;3.00;3.00;;;;;;;;5072563;27;45475;-61
2023/04/11 11:16:07;;;;;;;;;4.00;3.33;;;;;;;;5067427;27;46006;-61
2023/04/11 11:18:32;;;;;;;;;5.00;5.00;;;;;;;;5071691;27;45476;-61
2023/04/11 11:20:57;;;;;;;;;7.00;5.67;;;;;;;;5075427;27;45471;-62
2023/04/11 11:23:23;;;;;;;;;9.67;9.67;;;;;;;;5072945;27;45580;-60
2023/04/11 11:25:55;;;;;;;;;10.00;9.00;;;;;;;;5076351;27;45407;-60
2023/04/11 11:28:20;;;;;;;;;36.67;34.33;;;;;;;;5076220;27;45496;-61
2023/04/11 11:30:52;;;;;;;;;6.00;6.00;;;;;;;;5070208;27;45454;-61
2023/04/11 11:33:19;;;;;;;;;4.00;4.00;;;;;;;;5075582;27;45623;-62
2023/04/11 11:35:51;;;;;;;;;4.33;3.00;;;;;;;;5076013;27;46108;-61
2023/04/11 11:38:18;;;;;;;;;3.00;3.00;;;;;;;;5073604;27;45493;-62
2023/04/11 11:40:45;;;;;;;;;2.33;2.33;;;;;;;;5076739;27;45447;-62
2023/04/11 11:43:10;;;;;;;;;2.33;2.33;;;;;;;;5076946;27;45469;-62
2023/04/11 11:45:35;;;;;;;;;3.67;3.67;;;;;;;;5076447;27;45605;-62
2023/04/11 11:48:00;;;;;;;;;2.00;2.00;;;;;;;;5076521;28;45588;-62
2023/04/11 11:50:27;;;;;;;;;4.67;2.67;;;;;;;;5076837;27;45494;-62
2023/04/11 11:52:53;;;;;;;;;6.33;4.00;;;;;;;;5076927;27;45398;-62
2023/04/11 11:55:18;;;;;;;;;6.67;6.67;;;;;;;;5075481;27;45544;-62
2023/04/11 11:57:44;;;;;;;;;3.00;1.33;;;;;;;;5076646;27;45504;-62
2023/04/11 12:00:09;;;;;;;;;3.33;3.33;;;;;;;;5076930;27;45548;-62
2023/04/11 12:02:35;;;;;;;;;2.00;2.00;;;;;;;;5076382;27;45501;-62
2023/04/11 12:05:01;;;;;;;;;1.00;1.00;;;;;;;;5074944;27;46783;-62
2023/04/11 12:07:32;;;;;;;;;8.00;5.00;;;;;;;;5075285;27;45481;-62
2023/04/11 12:10:01;;;;;;;;;26.33;23.67;;;;;;;;5075842;27;45541;-62
2023/04/11 12:12:40;;;;;;;;;2.00;2.00;;;;;;;;5075180;27;45727;-62
2023/04/11 12:15:12;;;;;;;;;2.00;1.00;;;;;;;;5073980;27;47052;-63
2023/04/11 12:17:38;;;;;;;;;1.67;1.67;;;;;;;;5068442;27;45592;-64
2023/04/11 12:20:07;;;;;;;;;3.00;3.00;;;;;;;;5072253;27;45587;-62
2023/04/11 12:22:32;;;;;;;;;3.67;2.67;;;;;;;;5076172;27;45660;-62
2023/04/11 12:25:07;;;;;;;;;1.00;1.00;;;;;;;;5072781;28;46261;-62
2023/04/11 12:27:33;;;;;;;;;4.00;3.00;;;;;;;;5075865;27;45573;-63
2023/04/11 12:29:58;;;;;;;;;4.67;3.00;;;;;;;;5075037;28;45512;-62
2023/04/11 12:32:26;;;;;;;;;2.00;1.00;;;;;;;;5063083;28;45379;-62
2023/04/11 12:34:52;;;;;;;;;2.00;2.00;;;;;;;;5072657;28;47146;-63
2023/04/11 12:37:18;;;;;;;;;2.33;1.00;;;;;;;;5075583;27;45490;-63
2023/04/11 12:39:43;;;;;;;;;2.67;2.67;;;;;;;;5075870;27;45428;-62
2023/04/11 12:42:08;;;;;;;;;3.00;2.33;;;;;;;;5074838;27;45590;-62
2023/04/11 12:44:33;;;;;;;;;3.67;1.00;;;;;;;;5075753;28;45516;-62
2023/04/11 12:46:58;;;;;;;;;3.33;3.33;;;;;;;;5074790;27;45659;-62
2023/04/11 12:49:23;;;;;;;;;3.67;2.33;;;;;;;;5075924;27;45475;-62
2023/04/11 12:51:49;;;;;;;;;0.33;0.33;;;;;;;;5076091;28;45468;-62
2023/04/11 12:54:14;;;;;;;;;2.33;1.33;;;;;;;;5073957;27;45719;-62
2023/04/11 12:56:39;;;;;;;;;1.00;1.00;;;;;;;;5073962;27;45517;-62
2023/04/11 12:59:05;;;;;;;;;2.00;2.00;;;;;;;;5068530;27;45523;-62
2023/04/11 13:01:30;;;;;;;;;2.00;1.00;;;;;;;;5072122;27;45627;-62
2023/04/11 13:03:55;;;;;;;;;1.00;1.00;;;;;;;;5074387;27;45411;-62
2023/04/11 13:06:22;;;;;;;;;2.67;2.67;;;;;;;;5074490;27;45596;-62
2023/04/11 13:08:47;;;;;;;;;2.00;2.00;;;;;;;;5073704;27;45481;-62
2023/04/11 13:11:12;;;;;;;;;3.00;2.00;;;;;;;;5075226;27;45465;-63
2023/04/11 13:13:37;;;;;;;;;3.33;3.33;;;;;;;;5075476;27;46078;-62
2023/04/11 13:16:03;;;;;;;;;1.33;1.33;;;;;;;;5068097;27;45557;-61
2023/04/11 13:18:28;;;;;;;;;1.00;1.00;;;;;;;;5075292;27;45452;-61
2023/04/11 13:20:53;;;;;;;;;5.00;3.00;;;;;;;;5069444;28;45532;-62
2023/04/11 13:23:18;;;;;;;;;3.00;3.00;;;;;;;;5073778;27;46157;-63
2023/04/11 13:25:43;;;;;;;;;2.00;1.00;;;;;;;;5074061;28;45587;-62
2023/04/11 13:28:09;;;;;;;;;4.00;4.00;;;;;;;;5074039;27;45409;-63
2023/04/11 13:30:34;;;;;;;;;2.00;2.00;;;;;;;;5070489;27;45559;-62
2023/04/11 13:33:02;;;;;;;;;2.33;2.33;;;;;;;;5072467;28;45508;-62
2023/04/11 13:35:28;;;;;;;;;3.33;2.00;;;;;;;;5073031;27;45518;-63
2023/04/11 13:37:53;;;;;;;;;3.33;3.33;;;;;;;;5072375;27;46498;-63
2023/04/11 13:40:18;;;;;;;;;1.33;1.33;;;;;;;;5063884;27;45434;-62
2023/04/11 13:42:43;;;;;;;;;3.00;3.00;;;;;;;;5074377;27;46244;-62
2023/04/11 13:45:09;;;;;;;;;3.00;3.00;;;;;;;;5064223;28;45640;-58
2023/04/11 13:47:34;;;;;;;;;2.00;2.00;;;;;;;;5072511;28;46175;-58
2023/04/11 13:49:59;;;;;;;;;2.00;1.00;;;;;;;;5064731;28;45556;-61
2023/04/11 13:52:24;;;;;;;;;2.67;2.67;;;;;;;;5072300;27;45635;-61
2023/04/11 13:54:50;;;;;;;;;3.00;3.00;;;;;;;;5073589;27;45461;-63
2023/04/11 13:57:15;;;;;;;;;5.00;3.33;;;;;;;;5072068;27;45471;-61
2023/04/11 13:59:40;;;;;;;;;2.33;2.33;;;;;;;;5068820;28;45552;-65
2023/04/11 14:02:06;;;;;;;;;2.00;2.00;;;;;;;;5072869;27;46017;-62
2023/04/11 14:04:31;;;;;;;;;2.00;2.00;;;;;;;;5073758;27;45382;-61
2023/04/11 14:06:56;;;;;;;;;4.33;1.67;;;;;;;;5070501;27;45530;-61
2023/04/11 14:09:21;;;;;;;;;2.00;2.00;;;;;;;;5068730;28;45351;-61
2023/04/11 14:11:46;;;;;;;;;2.00;1.00;;;;;;;;5071792;28;45812;-61
2023/04/11 14:14:11;;;;;;;;;2.67;1.33;;;;;;;;5071155;28;45435;-60
2023/04/11 14:16:37;;;;;;;;;2.33;1.33;;;;;;;;5067760;27;45430;-61
2023/04/11 14:19:02;;;;;;;;;2.00;2.00;;;;;;;;5072456;28;45395;-60
2023/04/11 14:21:27;;;;;;;;;1.33;1.00;;;;;;;;5068062;28;45533;-60
2023/04/11 14:23:52;;;;;;;;;2.00;2.00;;;;;;;;5071761;27;45537;-63
2023/04/11 14:26:18;;;;;;;;;1.33;1.00;;;;;;;;5074259;28;45347;-63
2023/04/11 14:28:43;;;;;;;;;2.00;2.00;;;;;;;;5071973;27;45643;-63
2023/04/11 14:31:08;;;;;;;;;1.00;1.00;;;;;;;;5073481;27;46092;-63
2023/04/11 14:33:33;;;;;;;;;2.00;2.00;;;;;;;;5069318;27;45441;-63
2023/04/11 14:35:59;;;;;;;;;3.00;1.00;;;;;;;;5072557;28;45605;-61